Portada
METAR-TAF:

METAR-TAF

Aeropuertos :

Aeropuerto Internacional de Niue

Alofi, Niue

latitud: 19-04S, longitud: 169-55W, altitud: 20 m

Observación

El informe se hizo hace 54 minutos, a las 16:00 UTC
Viento 5 kt del este
Temperatura 23°C
Humedad 94%
Presión 1015 hPa

METAR: NIUE 271600Z AUTO 09005KT //// // ///////// 23/22 Q1015.0

Hora: 05:54 (16:54 UTC)

Pronóstico

El informe se hizo hace 35 horas y 40 minutos, a las 05:14 UTC
Pronóstico válido del 26 a las 06 UTC al 27 a las 06 UTC
Viento 8 kt del sureste
Visibilidad 10 km o más
Nubes dispersas a una altura de 1800 ft

TAF: NIUE 260514Z 2606/2706 13008KT 9999 SCT018

Observaciones y pronósticos meteorológicos de más de 4000 aeropuertos (mensajes METAR y TAF).

Los puntos amarillos y rojos representan las estaciones disponibles.

Ponga el ratón en el punto deseado para ver el nombre de la estación.

Haga clic para ver las observaciones y los pronósticos meteorológicos.

Para cambiar el mapa : haga clic en los botones verdes con una cruz de color negro para hacer un zoom, en el botón verde con un guión para alejar o en las flechas verdes para mapas adyacentes.


METAR-TAF: